sensor_id;sensor_type;location;lat;lon;timestamp;pressure;altitude;pressure_sealevel;temperature;humidity
28008;BME280;15333;50.010;20.020;2024-02-21T00:01:04;99505.13;;;4.96;74.00
28008;BME280;15333;50.010;20.020;2024-02-21T00:04:21;99500.91;;;4.90;74.55
28008;BME280;15333;50.010;20.020;2024-02-21T00:07:21;99504.72;;;4.83;74.12
28008;BME280;15333;50.010;20.020;2024-02-21T00:10:23;99504.88;;;4.80;73.82
28008;BME280;15333;50.010;20.020;2024-02-21T00:13:24;99507.47;;;4.82;74.31
28008;BME280;15333;50.010;20.020;2024-02-21T00:16:25;99498.22;;;4.70;73.09
28008;BME280;15333;50.010;20.020;2024-02-21T00:19:25;99499.47;;;4.61;73.07
28008;BME280;15333;50.010;20.020;2024-02-21T00:22:26;99507.84;;;4.51;71.68
28008;BME280;15333;50.010;20.020;2024-02-21T00:25:29;99510.97;;;4.39;71.67
28008;BME280;15333;50.010;20.020;2024-02-21T00:28:30;99512.00;;;4.34;71.33
28008;BME280;15333;50.010;20.020;2024-02-21T00:31:31;99513.41;;;4.21;71.05
28008;BME280;15333;50.010;20.020;2024-02-21T00:34:32;99518.00;;;4.16;69.74
28008;BME280;15333;50.010;20.020;2024-02-21T00:37:32;99505.94;;;4.09;69.65
28008;BME280;15333;50.010;20.020;2024-02-21T00:40:34;99503.97;;;4.14;69.01
28008;BME280;15333;50.010;20.020;2024-02-21T00:43:35;99496.94;;;4.13;68.29
28008;BME280;15333;50.010;20.020;2024-02-21T00:46:36;99506.44;;;4.19;68.12
28008;BME280;15333;50.010;20.020;2024-02-21T00:49:39;99496.81;;;4.16;66.85
28008;BME280;15333;50.010;20.020;2024-02-21T00:52:40;99495.72;;;4.22;67.28
28008;BME280;15333;50.010;20.020;2024-02-21T00:55:41;99493.75;;;4.27;67.36
28008;BME280;15333;50.010;20.020;2024-02-21T00:58:43;99486.41;;;4.33;66.91
28008;BME280;15333;50.010;20.020;2024-02-21T01:01:44;99484.53;;;4.37;66.48
28008;BME280;15333;50.010;20.020;2024-02-21T01:04:45;99479.94;;;4.41;67.92
28008;BME280;15333;50.010;20.020;2024-02-21T01:07:46;99476.38;;;4.42;68.22
28008;BME280;15333;50.010;20.020;2024-02-21T01:10:47;99478.00;;;4.46;68.80
28008;BME280;15333;50.010;20.020;2024-02-21T01:13:47;99474.28;;;4.50;69.24
28008;BME280;15333;50.010;20.020;2024-02-21T01:16:48;99474.97;;;4.55;69.45
28008;BME280;15333;50.010;20.020;2024-02-21T01:19:49;99472.31;;;4.55;69.48
28008;BME280;15333;50.010;20.020;2024-02-21T01:22:50;99465.41;;;4.51;68.97
28008;BME280;15333;50.010;20.020;2024-02-21T01:25:51;99468.75;;;4.56;68.79
28008;BME280;15333;50.010;20.020;2024-02-21T01:28:52;99471.94;;;4.64;69.65
28008;BME280;15333;50.010;20.020;2024-02-21T01:31:53;99461.53;;;4.59;69.96
28008;BME280;15333;50.010;20.020;2024-02-21T01:34:54;99461.72;;;4.55;70.08
28008;BME280;15333;50.010;20.020;2024-02-21T01:37:55;99454.56;;;4.57;69.48
28008;BME280;15333;50.010;20.020;2024-02-21T01:40:56;99457.78;;;4.43;70.15
28008;BME280;15333;50.010;20.020;2024-02-21T01:43:57;99449.28;;;4.35;70.52
28008;BME280;15333;50.010;20.020;2024-02-21T01:46:58;99440.94;;;4.22;69.71
28008;BME280;15333;50.010;20.020;2024-02-21T01:49:59;99449.00;;;4.19;69.74
28008;BME280;15333;50.010;20.020;2024-02-21T01:53:00;99447.31;;;4.18;69.52
28008;BME280;15333;50.010;20.020;2024-02-21T01:56:02;99448.34;;;4.14;69.47
28008;BME280;15333;50.010;20.020;2024-02-21T01:59:06;99454.78;;;4.07;70.08
28008;BME280;15333;50.010;20.020;2024-02-21T02:02:06;99442.84;;;3.97;69.83
28008;BME280;15333;50.010;20.020;2024-02-21T02:05:08;99446.41;;;3.96;69.78
28008;BME280;15333;50.010;20.020;2024-02-21T02:08:08;99447.50;;;3.90;68.91
28008;BME280;15333;50.010;20.020;2024-02-21T02:11:10;99443.06;;;3.91;69.42
28008;BME280;15333;50.010;20.020;2024-02-21T02:14:11;99435.44;;;3.83;68.84
28008;BME280;15333;50.010;20.020;2024-02-21T02:17:12;99441.22;;;3.93;69.38
28008;BME280;15333;50.010;20.020;2024-02-21T02:20:13;99437.06;;;3.86;69.20
28008;BME280;15333;50.010;20.020;2024-02-21T02:26:27;99443.41;;;3.82;69.65
28008;BME280;15333;50.010;20.020;2024-02-21T02:29:28;99437.41;;;3.77;68.76
28008;BME280;15333;50.010;20.020;2024-02-21T02:32:29;99434.44;;;3.86;68.10
28008;BME280;15333;50.010;20.020;2024-02-21T02:35:30;99427.97;;;3.93;68.46
28008;BME280;15333;50.010;20.020;2024-02-21T02:38:31;99418.06;;;3.98;68.98
28008;BME280;15333;50.010;20.020;2024-02-21T02:41:35;99428.66;;;3.98;69.00
28008;BME280;15333;50.010;20.020;2024-02-21T02:44:36;99417.84;;;4.04;69.71
28008;BME280;15333;50.010;20.020;2024-02-21T02:47:39;99421.16;;;4.09;70.41
28008;BME280;15333;50.010;20.020;2024-02-21T02:50:40;99419.44;;;4.08;70.55
28008;BME280;15333;50.010;20.020;2024-02-21T02:53:41;99415.97;;;4.06;70.32
28008;BME280;15333;50.010;20.020;2024-02-21T02:56:42;99415.97;;;4.06;70.63
28008;BME280;15333;50.010;20.020;2024-02-21T02:59:50;99415.72;;;4.12;71.17
28008;BME280;15333;50.010;20.020;2024-02-21T03:02:51;99410.44;;;4.12;70.58
28008;BME280;15333;50.010;20.020;2024-02-21T03:05:52;99409.22;;;4.21;71.11
28008;BME280;15333;50.010;20.020;2024-02-21T03:08:53;99414.75;;;4.15;71.30
28008;BME280;15333;50.010;20.020;2024-02-21T03:11:55;99403.88;;;4.22;71.63
28008;BME280;15333;50.010;20.020;2024-02-21T03:15:03;99404.53;;;4.27;71.44
28008;BME280;15333;50.010;20.020;2024-02-21T03:18:05;99398.50;;;4.24;72.75
28008;BME280;15333;50.010;20.020;2024-02-21T03:21:06;99398.38;;;4.27;71.64
28008;BME280;15333;50.010;20.020;2024-02-21T03:24:07;99392.47;;;4.20;72.26
28008;BME280;15333;50.010;20.020;2024-02-21T03:27:08;99399.72;;;4.15;72.09
28008;BME280;15333;50.010;20.020;2024-02-21T03:30:09;99393.44;;;3.96;71.43
28008;BME280;15333;50.010;20.020;2024-02-21T03:33:10;99400.69;;;3.91;72.20
28008;BME280;15333;50.010;20.020;2024-02-21T03:36:14;99397.13;;;3.92;70.78
28008;BME280;15333;50.010;20.020;2024-02-21T03:39:15;99402.31;;;3.95;70.06
28008;BME280;15333;50.010;20.020;2024-02-21T03:42:17;99402.16;;;3.98;69.85
28008;BME280;15333;50.010;20.020;2024-02-21T03:45:18;99401.97;;;4.04;70.59
28008;BME280;15333;50.010;20.020;2024-02-21T03:48:19;99413.91;;;4.14;71.37
28008;BME280;15333;50.010;20.020;2024-02-21T03:51:19;99410.31;;;4.15;71.27
28008;BME280;15333;50.010;20.020;2024-02-21T03:54:20;99404.94;;;4.18;72.03
28008;BME280;15333;50.010;20.020;2024-02-21T03:57:21;99402.69;;;4.29;71.77
28008;BME280;15333;50.010;20.020;2024-02-21T04:00:23;99404.41;;;4.30;72.88
28008;BME280;15333;50.010;20.020;2024-02-21T04:03:24;99397.63;;;4.45;73.90
28008;BME280;15333;50.010;20.020;2024-02-21T04:06:25;99398.88;;;4.37;74.82
28008;BME280;15333;50.010;20.020;2024-02-21T04:09:26;99398.25;;;4.52;74.15
28008;BME280;15333;50.010;20.020;2024-02-21T04:12:28;99387.50;;;4.55;74.70
28008;BME280;15333;50.010;20.020;2024-02-21T04:15:28;99382.34;;;4.52;75.56
28008;BME280;15333;50.010;20.020;2024-02-21T04:18:29;99387.38;;;4.58;75.31
28008;BME280;15333;50.010;20.020;2024-02-21T04:21:30;99379.53;;;4.55;76.08
28008;BME280;15333;50.010;20.020;2024-02-21T04:24:31;99371.75;;;4.52;76.43
28008;BME280;15333;50.010;20.020;2024-02-21T04:27:32;99367.31;;;4.52;76.26
28008;BME280;15333;50.010;20.020;2024-02-21T04:30:33;99371.00;;;4.48;76.43
28008;BME280;15333;50.010;20.020;2024-02-21T04:33:33;99371.75;;;4.52;75.96
28008;BME280;15333;50.010;20.020;2024-02-21T04:36:34;99379.63;;;4.53;75.93
28008;BME280;15333;50.010;20.020;2024-02-21T04:39:35;99371.94;;;4.47;76.35
28008;BME280;15333;50.010;20.020;2024-02-21T04:42:36;99358.75;;;4.46;76.85
28008;BME280;15333;50.010;20.020;2024-02-21T04:45:37;99363.34;;;4.41;76.03
28008;BME280;15333;50.010;20.020;2024-02-21T04:48:38;99341.63;;;4.32;75.94
28008;BME280;15333;50.010;20.020;2024-02-21T04:51:40;99344.66;;;4.23;75.90
28008;BME280;15333;50.010;20.020;2024-02-21T04:54:41;99335.34;;;4.13;74.93
28008;BME280;15333;50.010;20.020;2024-02-21T04:57:42;99343.44;;;4.10;75.80
28008;BME280;15333;50.010;20.020;2024-02-21T05:00:43;99352.31;;;4.09;74.55
28008;BME280;15333;50.010;20.020;2024-02-21T05:03:43;99349.91;;;4.03;74.78
28008;BME280;15333;50.010;20.020;2024-02-21T05:06:45;99364.94;;;4.03;74.37
28008;BME280;15333;50.010;20.020;2024-02-21T05:09:46;99370.41;;;3.98;75.72
28008;BME280;15333;50.010;20.020;2024-02-21T05:12:47;99362.41;;;4.00;74.69
28008;BME280;15333;50.010;20.020;2024-02-21T05:15:48;99370.09;;;4.06;75.14
28008;BME280;15333;50.010;20.020;2024-02-21T05:18:49;99369.94;;;4.10;75.49
28008;BME280;15333;50.010;20.020;2024-02-21T05:21:50;99373.25;;;4.15;74.92
28008;BME280;15333;50.010;20.020;2024-02-21T05:24:51;99364.13;;;4.22;74.92
28008;BME280;15333;50.010;20.020;2024-02-21T05:27:51;99375.22;;;4.32;76.31
28008;BME280;15333;50.010;20.020;2024-02-21T05:30:56;99370.53;;;4.39;76.38
28008;BME280;15333;50.010;20.020;2024-02-21T05:33:57;99370.81;;;4.53;76.27
28008;BME280;15333;50.010;20.020;2024-02-21T05:36:58;99366.38;;;4.53;76.93
28008;BME280;15333;50.010;20.020;2024-02-21T05:40:00;99362.72;;;4.56;77.12
28008;BME280;15333;50.010;20.020;2024-02-21T05:43:02;99359.75;;;4.63;76.94
28008;BME280;15333;50.010;20.020;2024-02-21T05:46:02;99358.75;;;4.66;77.04
28008;BME280;15333;50.010;20.020;2024-02-21T05:49:03;99363.69;;;4.75;77.11
28008;BME280;15333;50.010;20.020;2024-02-21T05:52:04;99362.94;;;4.71;77.50
28008;BME280;15333;50.010;20.020;2024-02-21T05:55:07;99352.81;;;4.61;77.45
28008;BME280;15333;50.010;20.020;2024-02-21T05:58:09;99353.69;;;4.82;77.14
28008;BME280;15333;50.010;20.020;2024-02-21T06:01:13;99356.22;;;4.83;77.85
28008;BME280;15333;50.010;20.020;2024-02-21T06:04:14;99358.22;;;4.78;77.63
28008;BME280;15333;50.010;20.020;2024-02-21T06:07:15;99356.22;;;4.83;78.47
28008;BME280;15333;50.010;20.020;2024-02-21T06:10:16;99355.84;;;4.92;78.36
28008;BME280;15333;50.010;20.020;2024-02-21T06:13:17;99356.13;;;4.86;77.39
28008;BME280;15333;50.010;20.020;2024-02-21T06:16:18;99361.34;;;4.88;78.30
28008;BME280;15333;50.010;20.020;2024-02-21T06:19:19;99359.69;;;4.85;78.38
28008;BME280;15333;50.010;20.020;2024-02-21T06:22:20;99350.69;;;4.89;77.52
28008;BME280;15333;50.010;20.020;2024-02-21T06:25:21;99342.97;;;4.83;78.06
28008;BME280;15333;50.010;20.020;2024-02-21T06:28:21;99345.81;;;4.99;77.75
28008;BME280;15333;50.010;20.020;2024-02-21T06:31:22;99341.53;;;4.96;78.21
28008;BME280;15333;50.010;20.020;2024-02-21T06:34:23;99345.28;;;4.91;78.69
28008;BME280;15333;50.010;20.020;2024-02-21T06:37:25;99347.56;;;5.00;79.11
28008;BME280;15333;50.010;20.020;2024-02-21T06:40:25;99345.13;;;4.95;79.14
28008;BME280;15333;50.010;20.020;2024-02-21T06:43:26;99346.56;;;5.02;78.70
28008;BME280;15333;50.010;20.020;2024-02-21T06:46:28;99340.94;;;4.90;79.25
28008;BME280;15333;50.010;20.020;2024-02-21T06:49:34;99352.28;;;4.93;79.55
28008;BME280;15333;50.010;20.020;2024-02-21T06:52:36;99351.88;;;5.02;79.30
28008;BME280;15333;50.010;20.020;2024-02-21T06:55:37;99349.06;;;5.26;80.24
28008;BME280;15333;50.010;20.020;2024-02-21T06:58:38;99348.78;;;5.69;80.93
28008;BME280;15333;50.010;20.020;2024-02-21T07:01:39;99356.03;;;5.84;81.76
28008;BME280;15333;50.010;20.020;2024-02-21T07:04:39;99346.13;;;5.89;82.82
28008;BME280;15333;50.010;20.020;2024-02-21T07:07:40;99334.31;;;5.95;83.35
28008;BME280;15333;50.010;20.020;2024-02-21T07:10:41;99340.91;;;5.86;82.75
28008;BME280;15333;50.010;20.020;2024-02-21T07:13:42;99327.34;;;5.93;82.99
28008;BME280;15333;50.010;20.020;2024-02-21T07:16:43;99334.47;;;5.92;83.59
28008;BME280;15333;50.010;20.020;2024-02-21T07:19:44;99333.47;;;5.95;83.75
28008;BME280;15333;50.010;20.020;2024-02-21T07:22:45;99334.59;;;6.08;84.21
28008;BME280;15333;50.010;20.020;2024-02-21T07:25:47;99327.41;;;6.10;84.11
28008;BME280;15333;50.010;20.020;2024-02-21T07:28:47;99322.22;;;6.07;83.75
28008;BME280;15333;50.010;20.020;2024-02-21T07:31:48;99326.06;;;6.18;83.65
28008;BME280;15333;50.010;20.020;2024-02-21T07:34:49;99328.63;;;6.39;84.04
28008;BME280;15333;50.010;20.020;2024-02-21T07:37:50;99327.94;;;6.52;84.06
28008;BME280;15333;50.010;20.020;2024-02-21T07:40:51;99321.84;;;6.67;83.84
28008;BME280;15333;50.010;20.020;2024-02-21T07:43:52;99320.41;;;6.78;84.08
28008;BME280;15333;50.010;20.020;2024-02-21T07:46:53;99321.91;;;6.66;85.04
28008;BME280;15333;50.010;20.020;2024-02-21T07:49:55;99312.81;;;6.70;84.86
28008;BME280;15333;50.010;20.020;2024-02-21T07:52:56;99312.09;;;6.84;85.06
28008;BME280;15333;50.010;20.020;2024-02-21T07:55:57;99308.81;;;6.96;84.37
28008;BME280;15333;50.010;20.020;2024-02-21T07:58:58;99306.63;;;6.87;84.33
28008;BME280;15333;50.010;20.020;2024-02-21T08:01:59;99305.78;;;7.19;85.33
28008;BME280;15333;50.010;20.020;2024-02-21T08:05:00;99299.03;;;7.29;85.43
28008;BME280;15333;50.010;20.020;2024-02-21T08:08:02;99300.97;;;7.59;86.27
28008;BME280;15333;50.010;20.020;2024-02-21T08:11:03;99292.44;;;7.83;88.30
28008;BME280;15333;50.010;20.020;2024-02-21T08:14:04;99301.72;;;7.92;91.02
28008;BME280;15333;50.010;20.020;2024-02-21T08:17:05;99296.38;;;8.23;100.00
28008;BME280;15333;50.010;20.020;2024-02-21T08:20:06;99292.25;;;8.34;100.00
28008;BME280;15333;50.010;20.020;2024-02-21T08:23:07;99289.03;;;8.43;100.00
28008;BME280;15333;50.010;20.020;2024-02-21T08:26:08;99289.31;;;8.22;100.00
28008;BME280;15333;50.010;20.020;2024-02-21T08:29:09;99293.59;;;8.41;100.00
28008;BME280;15333;50.010;20.020;2024-02-21T08:32:10;99285.03;;;8.36;100.00
28008;BME280;15333;50.010;20.020;2024-02-21T08:35:11;99288.47;;;8.06;100.00
28008;BME280;15333;50.010;20.020;2024-02-21T08:38:13;99283.31;;;8.03;100.00
28008;BME280;15333;50.010;20.020;2024-02-21T08:41:14;99281.25;;;8.08;100.00
28008;BME280;15333;50.010;20.020;2024-02-21T08:44:15;99274.81;;;8.58;100.00
28008;BME280;15333;50.010;20.020;2024-02-21T08:47:16;99281.50;;;8.65;100.00
28008;BME280;15333;50.010;20.020;2024-02-21T08:50:17;99279.94;;;8.61;100.00
28008;BME280;15333;50.010;20.020;2024-02-21T08:53:17;99276.75;;;8.84;100.00
28008;BME280;15333;50.010;20.020;2024-02-21T08:56:19;99267.09;;;8.82;100.00
28008;BME280;15333;50.010;20.020;2024-02-21T08:59:19;99264.75;;;9.06;100.00
28008;BME280;15333;50.010;20.020;2024-02-21T09:02:21;99265.69;;;8.46;100.00
28008;BME280;15333;50.010;20.020;2024-02-21T09:05:22;99266.63;;;8.31;100.00
28008;BME280;15333;50.010;20.020;2024-02-21T09:08:23;99259.06;;;8.23;100.00
28008;BME280;15333;50.010;20.020;2024-02-21T09:11:24;99258.53;;;8.33;100.00
28008;BME280;15333;50.010;20.020;2024-02-21T09:14:27;99256.25;;;8.41;100.00
28008;BME280;15333;50.010;20.020;2024-02-21T09:17:29;99246.31;;;8.58;100.00
28008;BME280;15333;50.010;20.020;2024-02-21T09:20:30;99248.53;;;8.66;100.00
28008;BME280;15333;50.010;20.020;2024-02-21T09:23:31;99240.56;;;8.94;100.00
28008;BME280;15333;50.010;20.020;2024-02-21T09:26:33;99256.72;;;8.77;100.00
28008;BME280;15333;50.010;20.020;2024-02-21T09:29:34;99258.63;;;8.89;100.00
28008;BME280;15333;50.010;20.020;2024-02-21T09:32:35;99259.13;;;8.96;100.00
28008;BME280;15333;50.010;20.020;2024-02-21T09:35:36;99255.41;;;8.98;100.00
28008;BME280;15333;50.010;20.020;2024-02-21T09:38:39;99265.13;;;8.85;100.00
28008;BME280;15333;50.010;20.020;2024-02-21T09:41:49;99261.66;;;8.69;100.00
28008;BME280;15333;50.010;20.020;2024-02-21T09:44:53;99262.47;;;8.85;100.00
28008;BME280;15333;50.010;20.020;2024-02-21T09:47:58;99267.41;;;8.91;100.00
28008;BME280;15333;50.010;20.020;2024-02-21T09:51:05;99258.25;;;8.95;100.00
28008;BME280;15333;50.010;20.020;2024-02-21T09:54:07;99262.09;;;8.91;100.00
28008;BME280;15333;50.010;20.020;2024-02-21T09:57:09;99251.41;;;9.20;100.00
28008;BME280;15333;50.010;20.020;2024-02-21T10:00:10;99251.19;;;9.51;100.00
28008;BME280;15333;50.010;20.020;2024-02-21T10:03:15;99253.50;;;9.43;100.00
28008;BME280;15333;50.010;20.020;2024-02-21T10:06:16;99248.31;;;9.54;100.00
28008;BME280;15333;50.010;20.020;2024-02-21T10:09:24;99246.09;;;9.61;100.00
28008;BME280;15333;50.010;20.020;2024-02-21T10:12:27;99234.16;;;9.66;100.00
28008;BME280;15333;50.010;20.020;2024-02-21T10:15:28;99223.41;;;9.54;100.00
28008;BME280;15333;50.010;20.020;2024-02-21T10:18:29;99220.97;;;9.77;100.00
28008;BME280;15333;50.010;20.020;2024-02-21T10:21:30;99230.28;;;9.58;100.00
28008;BME280;15333;50.010;20.020;2024-02-21T10:24:31;99224.41;;;9.79;100.00
28008;BME280;15333;50.010;20.020;2024-02-21T10:27:36;99220.16;;;9.90;99.89
28008;BME280;15333;50.010;20.020;2024-02-21T10:30:37;99223.91;;;9.46;100.00
28008;BME280;15333;50.010;20.020;2024-02-21T10:33:38;99219.09;;;9.65;100.00
28008;BME280;15333;50.010;20.020;2024-02-21T10:36:39;99209.28;;;9.66;100.00
28008;BME280;15333;50.010;20.020;2024-02-21T10:39:41;99204.06;;;9.50;100.00
28008;BME280;15333;50.010;20.020;2024-02-21T10:42:43;99202.50;;;9.60;100.00
28008;BME280;15333;50.010;20.020;2024-02-21T10:45:45;99194.31;;;9.49;100.00
28008;BME280;15333;50.010;20.020;2024-02-21T10:48:46;99189.50;;;9.68;100.00
28008;BME280;15333;50.010;20.020;2024-02-21T10:51:48;99186.19;;;10.04;100.00
28008;BME280;15333;50.010;20.020;2024-02-21T10:54:56;99181.50;;;10.08;99.19
28008;BME280;15333;50.010;20.020;2024-02-21T10:57:59;99178.38;;;10.53;96.95
28008;BME280;15333;50.010;20.020;2024-02-21T11:01:00;99178.16;;;10.31;96.92
28008;BME280;15333;50.010;20.020;2024-02-21T11:04:06;99173.03;;;9.74;97.39
28008;BME280;15333;50.010;20.020;2024-02-21T11:07:07;99172.13;;;9.61;99.50
28008;BME280;15333;50.010;20.020;2024-02-21T11:10:29;99167.50;;;9.77;99.77
28008;BME280;15333;50.010;20.020;2024-02-21T11:13:40;99161.34;;;9.63;100.00
28008;BME280;15333;50.010;20.020;2024-02-21T11:16:42;99156.44;;;10.09;99.06
28008;BME280;15333;50.010;20.020;2024-02-21T11:19:43;99151.34;;;10.06;98.97
28008;BME280;15333;50.010;20.020;2024-02-21T11:22:45;99151.19;;;9.95;99.40
28008;BME280;15333;50.010;20.020;2024-02-21T11:25:45;99150.75;;;9.61;100.00
28008;BME280;15333;50.010;20.020;2024-02-21T11:28:59;99154.91;;;9.79;100.00
28008;BME280;15333;50.010;20.020;2024-02-21T11:32:02;99145.47;;;9.74;100.00
28008;BME280;15333;50.010;20.020;2024-02-21T11:35:04;99139.47;;;9.70;100.00
28008;BME280;15333;50.010;20.020;2024-02-21T11:38:09;99142.09;;;9.97;100.00
28008;BME280;15333;50.010;20.020;2024-02-21T11:41:11;99142.84;;;10.26;100.00
28008;BME280;15333;50.010;20.020;2024-02-21T11:44:11;99127.22;;;10.33;99.60
28008;BME280;15333;50.010;20.020;2024-02-21T11:47:14;99124.44;;;10.34;99.63
28008;BME280;15333;50.010;20.020;2024-02-21T11:50:15;99124.88;;;10.28;99.14
28008;BME280;15333;50.010;20.020;2024-02-21T11:53:16;99121.38;;;10.01;97.95
28008;BME280;15333;50.010;20.020;2024-02-21T11:56:17;99115.34;;;9.85;98.65
28008;BME280;15333;50.010;20.020;2024-02-21T11:59:18;99106.19;;;10.01;99.28
28008;BME280;15333;50.010;20.020;2024-02-21T12:02:19;99109.56;;;9.78;99.77
28008;BME280;15333;50.010;20.020;2024-02-21T12:05:21;99101.16;;;9.57;100.00
28008;BME280;15333;50.010;20.020;2024-02-21T12:08:21;99101.44;;;9.79;100.00
28008;BME280;15333;50.010;20.020;2024-02-21T12:11:22;99096.22;;;9.91;100.00
28008;BME280;15333;50.010;20.020;2024-02-21T12:14:24;99095.25;;;9.79;100.00
28008;BME280;15333;50.010;20.020;2024-02-21T12:17:26;99095.44;;;9.76;100.00
28008;BME280;15333;50.010;20.020;2024-02-21T12:20:27;99098.84;;;9.65;100.00
28008;BME280;15333;50.010;20.020;2024-02-21T12:23:28;99102.47;;;9.64;100.00
28008;BME280;15333;50.010;20.020;2024-02-21T12:26:29;99102.44;;;9.52;100.00
28008;BME280;15333;50.010;20.020;2024-02-21T12:29:30;99093.28;;;9.68;100.00
28008;BME280;15333;50.010;20.020;2024-02-21T12:32:31;99093.09;;;9.71;100.00
28008;BME280;15333;50.010;20.020;2024-02-21T12:35:32;99096.00;;;9.54;100.00
28008;BME280;15333;50.010;20.020;2024-02-21T12:38:33;99092.34;;;9.95;100.00
28008;BME280;15333;50.010;20.020;2024-02-21T12:41:35;99092.94;;;10.12;100.00
28008;BME280;15333;50.010;20.020;2024-02-21T12:44:38;99088.69;;;10.35;100.00
28008;BME280;15333;50.010;20.020;2024-02-21T12:47:39;99075.63;;;10.18;100.00
28008;BME280;15333;50.010;20.020;2024-02-21T12:50:50;99070.72;;;10.25;100.00
28008;BME280;15333;50.010;20.020;2024-02-21T12:53:54;99071.63;;;10.11;100.00
28008;BME280;15333;50.010;20.020;2024-02-21T12:56:55;99074.13;;;10.14;100.00
28008;BME280;15333;50.010;20.020;2024-02-21T12:59:56;99067.69;;;10.04;100.00
28008;BME280;15333;50.010;20.020;2024-02-21T13:02:57;99072.59;;;10.10;100.00
28008;BME280;15333;50.010;20.020;2024-02-21T13:05:58;99067.56;;;9.93;100.00
28008;BME280;15333;50.010;20.020;2024-02-21T13:08:59;99067.34;;;9.83;98.16
28008;BME280;15333;50.010;20.020;2024-02-21T13:12:04;99071.91;;;9.81;98.31
28008;BME280;15333;50.010;20.020;2024-02-21T13:15:06;99056.75;;;9.81;99.25
28008;BME280;15333;50.010;20.020;2024-02-21T13:18:07;99058.69;;;9.79;98.45
28008;BME280;15333;50.010;20.020;2024-02-21T13:21:08;99062.22;;;9.80;99.01
28008;BME280;15333;50.010;20.020;2024-02-21T13:24:09;99053.09;;;9.82;97.57
28008;BME280;15333;50.010;20.020;2024-02-21T13:27:10;99055.94;;;9.54;98.39
28008;BME280;15333;50.010;20.020;2024-02-21T13:30:12;99053.94;;;9.58;100.00
28008;BME280;15333;50.010;20.020;2024-02-21T13:33:13;99045.53;;;9.37;100.00
28008;BME280;15333;50.010;20.020;2024-02-21T13:36:14;99050.66;;;9.40;100.00
28008;BME280;15333;50.010;20.020;2024-02-21T13:39:15;99041.25;;;9.34;100.00
28008;BME280;15333;50.010;20.020;2024-02-21T13:42:16;99041.13;;;9.23;100.00
28008;BME280;15333;50.010;20.020;2024-02-21T13:45:18;99039.22;;;9.11;100.00
28008;BME280;15333;50.010;20.020;2024-02-21T13:48:20;99035.81;;;9.09;100.00
28008;BME280;15333;50.010;20.020;2024-02-21T13:51:21;99039.19;;;8.98;100.00
28008;BME280;15333;50.010;20.020;2024-02-21T13:54:22;99039.19;;;8.98;100.00
28008;BME280;15333;50.010;20.020;2024-02-21T13:57:22;99041.88;;;8.84;100.00
28008;BME280;15333;50.010;20.020;2024-02-21T14:00:23;99041.31;;;8.93;100.00
28008;BME280;15333;50.010;20.020;2024-02-21T14:03:24;99028.75;;;8.67;100.00
28008;BME280;15333;50.010;20.020;2024-02-21T14:06:26;99031.28;;;8.56;100.00
28008;BME280;15333;50.010;20.020;2024-02-21T14:09:28;99024.69;;;8.61;100.00
28008;BME280;15333;50.010;20.020;2024-02-21T14:12:32;99028.22;;;8.62;100.00
28008;BME280;15333;50.010;20.020;2024-02-21T14:15:33;99022.84;;;8.76;100.00
28008;BME280;15333;50.010;20.020;2024-02-21T14:18:36;99027.59;;;8.85;100.00
28008;BME280;15333;50.010;20.020;2024-02-21T14:21:38;99028.84;;;8.80;100.00
28008;BME280;15333;50.010;20.020;2024-02-21T14:24:39;99025.06;;;8.70;100.00
28008;BME280;15333;50.010;20.020;2024-02-21T14:27:40;99013.81;;;8.64;100.00
28008;BME280;15333;50.010;20.020;2024-02-21T14:30:41;99015.84;;;8.47;100.00
28008;BME280;15333;50.010;20.020;2024-02-21T14:33:41;99023.09;;;8.45;100.00
28008;BME280;15333;50.010;20.020;2024-02-21T14:36:42;99012.63;;;8.42;100.00
28008;BME280;15333;50.010;20.020;2024-02-21T14:39:43;99002.34;;;8.36;100.00
28008;BME280;15333;50.010;20.020;2024-02-21T14:42:44;99007.75;;;8.20;100.00
28008;BME280;15333;50.010;20.020;2024-02-21T14:45:45;99005.75;;;8.23;100.00
28008;BME280;15333;50.010;20.020;2024-02-21T14:48:48;99007.09;;;8.16;100.00
28008;BME280;15333;50.010;20.020;2024-02-21T14:51:49;99002.09;;;7.96;100.00
28008;BME280;15333;50.010;20.020;2024-02-21T14:54:50;99005.75;;;7.81;100.00
28008;BME280;15333;50.010;20.020;2024-02-21T14:57:52;99002.09;;;7.82;100.00
28008;BME280;15333;50.010;20.020;2024-02-21T15:00:53;98996.41;;;7.74;100.00
28008;BME280;15333;50.010;20.020;2024-02-21T15:03:54;98998.88;;;7.77;100.00
28008;BME280;15333;50.010;20.020;2024-02-21T15:06:55;98990.69;;;7.66;100.00
28008;BME280;15333;50.010;20.020;2024-02-21T15:09:56;98989.34;;;7.59;100.00
28008;BME280;15333;50.010;20.020;2024-02-21T15:12:57;98984.56;;;7.50;100.00
28008;BME280;15333;50.010;20.020;2024-02-21T15:15:58;98982.25;;;7.43;91.49
28008;BME280;15333;50.010;20.020;2024-02-21T15:18:59;98972.94;;;7.36;78.88
28008;BME280;15333;50.010;20.020;2024-02-21T15:22:00;98971.69;;;7.42;77.55
28008;BME280;15333;50.010;20.020;2024-02-21T15:25:02;98972.94;;;7.36;78.04
28008;BME280;15333;50.010;20.020;2024-02-21T15:28:05;98980.34;;;7.31;77.60
28008;BME280;15333;50.010;20.020;2024-02-21T15:31:07;98977.06;;;7.26;78.47
28008;BME280;15333;50.010;20.020;2024-02-21T15:34:07;98970.22;;;7.22;78.30
28008;BME280;15333;50.010;20.020;2024-02-21T15:37:09;98964.13;;;7.20;78.69
28008;BME280;15333;50.010;20.020;2024-02-21T15:40:11;98961.84;;;7.14;79.37
28008;BME280;15333;50.010;20.020;2024-02-21T15:43:12;98942.91;;;7.19;79.36
28008;BME280;15333;50.010;20.020;2024-02-21T15:46:13;98951.19;;;7.14;79.01
28008;BME280;15333;50.010;20.020;2024-02-21T15:49:14;98945.00;;;7.14;78.93
28008;BME280;15333;50.010;20.020;2024-02-21T15:52:15;98942.44;;;7.12;78.63
28008;BME280;15333;50.010;20.020;2024-02-21T15:55:16;98951.56;;;7.08;79.69
28008;BME280;15333;50.010;20.020;2024-02-21T15:58:18;98946.22;;;7.08;79.76